CDT,Max TemperatureF,Mean TemperatureF,Min TemperatureF,Max Dew PointF,MeanDew PointF,Min DewpointF,Max Humidity, Mean Humidity, Min Humidity, Max Sea Level PressureIn, Mean Sea Level PressureIn, Min Sea Level PressureIn, Max VisibilityMiles, Mean VisibilityMiles, Min VisibilityMiles, Max Wind SpeedMPH, Mean Wind SpeedMPH, Max Gust SpeedMPH,PrecipitationIn, CloudCover, Events, WindDirDegrees
2013-9-1,89,80,70,77,73,69,100,89,65,29.85,29.81,29.78,10,8,2,20,3,32,0.00,1,Rain-Thunderstorm,215
2013-9-2,84,76,66,72,67,63,100,79,51,29.96,29.91,29.84,10,9,4,9,3,,0.00,1,,335
2013-9-3,80,70,61,65,62,60,100,77,51,30.09,30.04,29.96,10,10,3,7,4,,0.00,1,,21
2013-9-4,82,68,55,68,61,55,100,79,45,30.18,30.14,30.09,10,9,5,5,1,,0.00,0,,332
2013-9-5,85,70,56,68,62,57,100,80,41,30.23,30.18,30.15,10,8,4,5,0,,0.00,0,,86
2013-9-6,87,72,59,69,65,59,100,79,47,30.21,30.14,30.07,10,8,1,7,1,,0.00,0,,161
2013-9-7,90,76,61,72,67,61,100,74,43,30.08,30.03,29.96,10,8,1,8,3,,0.00,0,,211
2013-9-8,84,78,72,75,72,68,99,84,72,30.01,29.96,29.93,10,9,5,8,3,,0.00,2,Rain,178
2013-9-9,95,84,73,75,74,71,100,76,47,30.00,29.97,29.93,10,8,2,8,3,,0.00,2,Rain-Thunderstorm,174
2013-9-10,92,82,74,74,74,72,99,81,51,30.12,30.07,30.00,10,9,4,9,4,,0.00,0,,191
2013-9-11,82,80,77,72,71,70,84,75,65,30.16,30.10,30.05,10,9,2,8,4,,0.00,0,,231
2013-9-12,83,72,61,72,66,55,98,73,48,30.10,30.04,29.98,10,9,2,10,5,,0.07,1,Rain,302
2013-9-13,75,66,56,58,52,46,99,68,38,30.14,30.09,30.05,10,10,10,14,5,18,0.00,1,,15
2013-9-14,74,61,48,51,48,45,90,66,35,30.18,30.12,30.07,10,10,10,7,3,,0.00,0,,88
2013-9-15,81,64,47,61,53,47,99,67,36,30.11,30.07,30.02,10,10,7,9,3,,0.00,1,Rain,196
2013-9-16,73,66,59,62,59,55,95,78,59,30.27,30.21,30.09,10,10,5,10,6,16,0.00,7,,29
2013-9-17,79,67,56,61,57,54,89,70,47,30.26,30.20,30.10,10,10,10,8,4,,0.00,3,,94
2013-9-18,84,74,64,71,67,60,100,81,61,30.13,30.07,29.99,10,8,2,8,3,,0.17,3,Rain,147
2013-9-19,90,81,72,72,71,68,96,77,49,30.05,29.99,29.90,10,8,4,14,7,20,0.00,1,Rain,192
2013-9-20,76,70,62,72,69,59,100,91,77,29.94,29.90,29.87,10,9,5,8,5,,0.00,6,Rain-Thunderstorm,255
2013-9-21,73,62,52,58,53,49,100,77,44,29.95,29.91,29.88,10,10,7,13,4,17,0.00,1,,335
2013-9-22,74,62,51,55,51,48,99,72,40,30.03,29.98,29.94,10,10,10,6,3,,0.00,0,,62
2013-9-23,76,64,51,53,51,47,99,68,36,30.07,30.01,29.97,10,10,10,9,2,,0.00,0,,102
2013-9-24,82,68,54,67,58,52,95,72,46,29.99,29.92,29.83,10,10,10,7,3,,0.00,3,Rain-Thunderstorm,106
2013-9-25,84,72,60,66,63,59,100,81,43,29.90,29.86,29.83,10,8,2,6,1,,0.00,2,,74
2013-9-26,83,71,59,65,60,55,100,73,40,30.05,29.99,29.90,10,9,4,6,2,,0.00,0,,96
2013-9-27,82,66,50,60,55,50,100,65,39,30.15,30.09,30.05,10,9,5,10,3,,0.00,0,,120
2013-9-28,84,71,58,64,59,55,89,65,41,30.11,30.05,30.00,10,10,10,17,6,25,0.00,4,,163
2013-9-29,76,66,57,66,60,52,100,82,44,30.06,30.01,29.97,10,8,0,10,6,17,0.05,5,Fog-Rain,314
2013-9-30,75,68,61,69,64,62,100,91,66,30.01,29.98,29.93,10,6,0,9,2,,0.00,6,Fog,166